sensor_id;sensor_type;location;lat;lon;timestamp;P1;durP1;ratioP1;P2;durP2;ratioP2
14797;SDS011;7490;63.708;20.368;2024-03-22T00:02:22;4.50;;;1.10;;
14797;SDS011;7490;63.708;20.368;2024-03-22T00:04:48;4.60;;;1.17;;
14797;SDS011;7490;63.708;20.368;2024-03-22T00:07:13;6.00;;;1.53;;
14797;SDS011;7490;63.708;20.368;2024-03-22T00:09:39;4.97;;;1.20;;
14797;SDS011;7490;63.708;20.368;2024-03-22T00:12:04;5.57;;;1.30;;
14797;SDS011;7490;63.708;20.368;2024-03-22T00:14:30;4.53;;;1.50;;
14797;SDS011;7490;63.708;20.368;2024-03-22T00:16:56;6.07;;;1.23;;
14797;SDS011;7490;63.708;20.368;2024-03-22T00:19:22;5.80;;;1.00;;
14797;SDS011;7490;63.708;20.368;2024-03-22T00:21:47;6.53;;;1.27;;
14797;SDS011;7490;63.708;20.368;2024-03-22T00:24:13;5.73;;;1.43;;
14797;SDS011;7490;63.708;20.368;2024-03-22T00:26:38;4.77;;;1.13;;
14797;SDS011;7490;63.708;20.368;2024-03-22T00:29:04;4.83;;;1.40;;
14797;SDS011;7490;63.708;20.368;2024-03-22T00:31:30;6.67;;;1.40;;
14797;SDS011;7490;63.708;20.368;2024-03-22T00:33:55;6.03;;;1.27;;
14797;SDS011;7490;63.708;20.368;2024-03-22T00:36:21;6.70;;;1.20;;
14797;SDS011;7490;63.708;20.368;2024-03-22T00:38:47;3.93;;;1.10;;
14797;SDS011;7490;63.708;20.368;2024-03-22T00:41:12;6.40;;;1.13;;
14797;SDS011;7490;63.708;20.368;2024-03-22T00:43:38;4.60;;;1.20;;
14797;SDS011;7490;63.708;20.368;2024-03-22T00:46:04;7.67;;;1.50;;
14797;SDS011;7490;63.708;20.368;2024-03-22T00:48:31;5.17;;;1.20;;
14797;SDS011;7490;63.708;20.368;2024-03-22T00:51:03;4.63;;;1.40;;
14797;SDS011;7490;63.708;20.368;2024-03-22T00:53:29;5.40;;;1.10;;
14797;SDS011;7490;63.708;20.368;2024-03-22T00:55:55;4.73;;;1.10;;
14797;SDS011;7490;63.708;20.368;2024-03-22T00:58:21;4.73;;;1.30;;
14797;SDS011;7490;63.708;20.368;2024-03-22T01:00:46;6.87;;;1.43;;
14797;SDS011;7490;63.708;20.368;2024-03-22T01:03:12;5.10;;;1.10;;
14797;SDS011;7490;63.708;20.368;2024-03-22T01:05:38;6.23;;;1.40;;
14797;SDS011;7490;63.708;20.368;2024-03-22T01:08:05;6.33;;;1.20;;
14797;SDS011;7490;63.708;20.368;2024-03-22T01:10:32;7.37;;;1.43;;
14797;SDS011;7490;63.708;20.368;2024-03-22T01:12:58;5.60;;;1.30;;
14797;SDS011;7490;63.708;20.368;2024-03-22T01:15:24;6.23;;;1.30;;
14797;SDS011;7490;63.708;20.368;2024-03-22T01:17:50;5.43;;;1.30;;
14797;SDS011;7490;63.708;20.368;2024-03-22T01:20:17;5.23;;;1.20;;
14797;SDS011;7490;63.708;20.368;2024-03-22T01:22:42;7.37;;;1.40;;
14797;SDS011;7490;63.708;20.368;2024-03-22T01:25:08;6.27;;;1.23;;
14797;SDS011;7490;63.708;20.368;2024-03-22T01:27:35;4.73;;;1.30;;
14797;SDS011;7490;63.708;20.368;2024-03-22T01:30:01;3.93;;;1.30;;
14797;SDS011;7490;63.708;20.368;2024-03-22T01:32:27;4.30;;;1.47;;
14797;SDS011;7490;63.708;20.368;2024-03-22T01:34:53;3.47;;;1.20;;
14797;SDS011;7490;63.708;20.368;2024-03-22T01:37:18;3.77;;;1.00;;
14797;SDS011;7490;63.708;20.368;2024-03-22T01:39:44;7.87;;;1.43;;
14797;SDS011;7490;63.708;20.368;2024-03-22T01:42:09;7.73;;;1.33;;
14797;SDS011;7490;63.708;20.368;2024-03-22T01:44:35;5.20;;;1.23;;
14797;SDS011;7490;63.708;20.368;2024-03-22T01:47:00;8.63;;;1.40;;
14797;SDS011;7490;63.708;20.368;2024-03-22T01:49:27;7.50;;;1.50;;
14797;SDS011;7490;63.708;20.368;2024-03-22T01:51:54;3.70;;;1.33;;
14797;SDS011;7490;63.708;20.368;2024-03-22T01:54:20;7.40;;;1.27;;
14797;SDS011;7490;63.708;20.368;2024-03-22T01:56:46;4.77;;;1.30;;
14797;SDS011;7490;63.708;20.368;2024-03-22T01:59:12;6.43;;;1.30;;
14797;SDS011;7490;63.708;20.368;2024-03-22T02:01:38;4.57;;;1.17;;
14797;SDS011;7490;63.708;20.368;2024-03-22T02:04:04;3.60;;;1.50;;
14797;SDS011;7490;63.708;20.368;2024-03-22T02:06:30;2.27;;;1.10;;
14797;SDS011;7490;63.708;20.368;2024-03-22T02:08:56;2.37;;;1.30;;
14797;SDS011;7490;63.708;20.368;2024-03-22T02:11:23;4.20;;;1.30;;
14797;SDS011;7490;63.708;20.368;2024-03-22T02:13:49;2.77;;;1.07;;
14797;SDS011;7490;63.708;20.368;2024-03-22T02:16:14;2.67;;;1.20;;
14797;SDS011;7490;63.708;20.368;2024-03-22T02:18:41;3.97;;;1.43;;
14797;SDS011;7490;63.708;20.368;2024-03-22T02:21:06;2.13;;;1.00;;
14797;SDS011;7490;63.708;20.368;2024-03-22T02:25:59;4.03;;;1.13;;
14797;SDS011;7490;63.708;20.368;2024-03-22T02:28:25;6.20;;;1.37;;
14797;SDS011;7490;63.708;20.368;2024-03-22T02:30:51;8.60;;;2.07;;
14797;SDS011;7490;63.708;20.368;2024-03-22T02:33:17;3.80;;;1.30;;
14797;SDS011;7490;63.708;20.368;2024-03-22T02:35:42;5.37;;;1.50;;
14797;SDS011;7490;63.708;20.368;2024-03-22T02:38:08;4.13;;;1.60;;
14797;SDS011;7490;63.708;20.368;2024-03-22T02:40:34;2.63;;;1.30;;
14797;SDS011;7490;63.708;20.368;2024-03-22T02:43:00;3.40;;;1.43;;
14797;SDS011;7490;63.708;20.368;2024-03-22T02:45:25;4.23;;;1.40;;
14797;SDS011;7490;63.708;20.368;2024-03-22T02:47:51;2.70;;;1.47;;
14797;SDS011;7490;63.708;20.368;2024-03-22T02:50:17;2.70;;;1.53;;
14797;SDS011;7490;63.708;20.368;2024-03-22T02:52:42;5.83;;;1.60;;
14797;SDS011;7490;63.708;20.368;2024-03-22T02:55:08;4.40;;;1.70;;
14797;SDS011;7490;63.708;20.368;2024-03-22T02:57:33;2.70;;;1.50;;
14797;SDS011;7490;63.708;20.368;2024-03-22T03:00:02;3.13;;;1.87;;
14797;SDS011;7490;63.708;20.368;2024-03-22T03:02:28;3.37;;;1.60;;
14797;SDS011;7490;63.708;20.368;2024-03-22T03:04:54;5.33;;;1.83;;
14797;SDS011;7490;63.708;20.368;2024-03-22T03:07:20;3.57;;;1.67;;
14797;SDS011;7490;63.708;20.368;2024-03-22T03:09:45;5.13;;;1.73;;
14797;SDS011;7490;63.708;20.368;2024-03-22T03:12:11;5.77;;;1.77;;
14797;SDS011;7490;63.708;20.368;2024-03-22T03:14:36;2.90;;;1.60;;
14797;SDS011;7490;63.708;20.368;2024-03-22T03:17:02;6.90;;;1.73;;
14797;SDS011;7490;63.708;20.368;2024-03-22T03:19:28;2.87;;;1.60;;
14797;SDS011;7490;63.708;20.368;2024-03-22T03:21:54;6.73;;;1.73;;
14797;SDS011;7490;63.708;20.368;2024-03-22T03:24:19;6.17;;;1.60;;
14797;SDS011;7490;63.708;20.368;2024-03-22T03:26:45;2.50;;;1.40;;
14797;SDS011;7490;63.708;20.368;2024-03-22T03:29:11;6.07;;;1.83;;
14797;SDS011;7490;63.708;20.368;2024-03-22T03:31:36;8.07;;;1.90;;
14797;SDS011;7490;63.708;20.368;2024-03-22T03:34:02;6.40;;;1.70;;
14797;SDS011;7490;63.708;20.368;2024-03-22T03:36:28;4.50;;;1.57;;
14797;SDS011;7490;63.708;20.368;2024-03-22T03:38:53;5.50;;;1.63;;
14797;SDS011;7490;63.708;20.368;2024-03-22T03:41:19;4.03;;;1.60;;
14797;SDS011;7490;63.708;20.368;2024-03-22T03:43:44;3.30;;;1.33;;
14797;SDS011;7490;63.708;20.368;2024-03-22T03:46:10;5.83;;;1.80;;
14797;SDS011;7490;63.708;20.368;2024-03-22T03:48:36;5.33;;;1.90;;
14797;SDS011;7490;63.708;20.368;2024-03-22T03:51:01;2.57;;;1.53;;
14797;SDS011;7490;63.708;20.368;2024-03-22T03:53:28;5.47;;;2.30;;
14797;SDS011;7490;63.708;20.368;2024-03-22T03:55:54;2.87;;;1.80;;
14797;SDS011;7490;63.708;20.368;2024-03-22T03:58:20;4.10;;;1.90;;
14797;SDS011;7490;63.708;20.368;2024-03-22T04:00:46;5.00;;;2.23;;
14797;SDS011;7490;63.708;20.368;2024-03-22T04:03:11;5.00;;;2.03;;
14797;SDS011;7490;63.708;20.368;2024-03-22T04:05:37;4.77;;;1.90;;
14797;SDS011;7490;63.708;20.368;2024-03-22T04:08:03;4.60;;;1.97;;
14797;SDS011;7490;63.708;20.368;2024-03-22T04:10:29;3.80;;;1.67;;
14797;SDS011;7490;63.708;20.368;2024-03-22T04:12:54;6.87;;;2.13;;
14797;SDS011;7490;63.708;20.368;2024-03-22T04:15:20;5.47;;;1.90;;
14797;SDS011;7490;63.708;20.368;2024-03-22T04:17:45;8.03;;;1.90;;
14797;SDS011;7490;63.708;20.368;2024-03-22T04:20:11;4.10;;;1.70;;
14797;SDS011;7490;63.708;20.368;2024-03-22T04:22:37;3.27;;;1.60;;
14797;SDS011;7490;63.708;20.368;2024-03-22T04:25:03;3.53;;;1.97;;
14797;SDS011;7490;63.708;20.368;2024-03-22T04:27:29;3.13;;;2.07;;
14797;SDS011;7490;63.708;20.368;2024-03-22T04:29:54;3.20;;;1.80;;
14797;SDS011;7490;63.708;20.368;2024-03-22T04:32:20;6.43;;;2.33;;
14797;SDS011;7490;63.708;20.368;2024-03-22T04:34:46;4.30;;;2.40;;
14797;SDS011;7490;63.708;20.368;2024-03-22T04:37:11;4.57;;;2.30;;
14797;SDS011;7490;63.708;20.368;2024-03-22T04:39:37;7.27;;;3.43;;
14797;SDS011;7490;63.708;20.368;2024-03-22T04:42:04;7.43;;;3.10;;
14797;SDS011;7490;63.708;20.368;2024-03-22T04:44:30;9.90;;;3.50;;
14797;SDS011;7490;63.708;20.368;2024-03-22T04:46:56;9.00;;;3.93;;
14797;SDS011;7490;63.708;20.368;2024-03-22T04:49:21;10.57;;;4.37;;
14797;SDS011;7490;63.708;20.368;2024-03-22T04:51:47;10.00;;;5.13;;
14797;SDS011;7490;63.708;20.368;2024-03-22T04:54:13;10.93;;;4.67;;
14797;SDS011;7490;63.708;20.368;2024-03-22T04:56:39;12.13;;;5.30;;
14797;SDS011;7490;63.708;20.368;2024-03-22T04:59:05;11.87;;;5.27;;
14797;SDS011;7490;63.708;20.368;2024-03-22T05:01:30;14.63;;;5.90;;
14797;SDS011;7490;63.708;20.368;2024-03-22T05:03:56;12.20;;;5.37;;
14797;SDS011;7490;63.708;20.368;2024-03-22T05:06:22;12.10;;;5.53;;
14797;SDS011;7490;63.708;20.368;2024-03-22T05:08:47;11.70;;;5.00;;
14797;SDS011;7490;63.708;20.368;2024-03-22T05:11:13;13.53;;;5.73;;
14797;SDS011;7490;63.708;20.368;2024-03-22T05:13:38;13.77;;;5.53;;
14797;SDS011;7490;63.708;20.368;2024-03-22T05:16:07;12.93;;;5.70;;
14797;SDS011;7490;63.708;20.368;2024-03-22T05:18:32;10.27;;;4.67;;
14797;SDS011;7490;63.708;20.368;2024-03-22T05:20:58;12.87;;;5.40;;
14797;SDS011;7490;63.708;20.368;2024-03-22T05:23:24;7.47;;;4.10;;
14797;SDS011;7490;63.708;20.368;2024-03-22T05:25:49;10.30;;;4.00;;
14797;SDS011;7490;63.708;20.368;2024-03-22T05:28:15;7.73;;;4.03;;
14797;SDS011;7490;63.708;20.368;2024-03-22T05:30:40;9.77;;;3.90;;
14797;SDS011;7490;63.708;20.368;2024-03-22T05:33:06;9.93;;;3.93;;
14797;SDS011;7490;63.708;20.368;2024-03-22T05:35:32;6.57;;;3.33;;
14797;SDS011;7490;63.708;20.368;2024-03-22T05:37:57;6.87;;;3.40;;
14797;SDS011;7490;63.708;20.368;2024-03-22T05:40:23;8.07;;;4.07;;
14797;SDS011;7490;63.708;20.368;2024-03-22T05:42:49;7.87;;;3.97;;
14797;SDS011;7490;63.708;20.368;2024-03-22T05:45:14;9.67;;;4.27;;
14797;SDS011;7490;63.708;20.368;2024-03-22T05:47:40;7.13;;;3.43;;
14797;SDS011;7490;63.708;20.368;2024-03-22T05:50:06;6.60;;;4.07;;
14797;SDS011;7490;63.708;20.368;2024-03-22T05:52:33;10.03;;;4.60;;
14797;SDS011;7490;63.708;20.368;2024-03-22T05:54:59;9.60;;;4.47;;
14797;SDS011;7490;63.708;20.368;2024-03-22T05:57:24;9.40;;;4.57;;
14797;SDS011;7490;63.708;20.368;2024-03-22T05:59:50;9.63;;;4.47;;
14797;SDS011;7490;63.708;20.368;2024-03-22T06:02:15;8.47;;;4.07;;
14797;SDS011;7490;63.708;20.368;2024-03-22T06:04:41;6.77;;;4.00;;
14797;SDS011;7490;63.708;20.368;2024-03-22T06:07:07;6.43;;;4.03;;
14797;SDS011;7490;63.708;20.368;2024-03-22T06:09:33;6.53;;;3.83;;
14797;SDS011;7490;63.708;20.368;2024-03-22T06:12:14;8.17;;;3.33;;
14797;SDS011;7490;63.708;20.368;2024-03-22T06:14:40;5.77;;;3.57;;
14797;SDS011;7490;63.708;20.368;2024-03-22T06:17:08;4.00;;;2.90;;
14797;SDS011;7490;63.708;20.368;2024-03-22T06:19:34;5.77;;;3.13;;
14797;SDS011;7490;63.708;20.368;2024-03-22T06:22:00;5.80;;;2.87;;
14797;SDS011;7490;63.708;20.368;2024-03-22T06:24:26;5.20;;;2.80;;
14797;SDS011;7490;63.708;20.368;2024-03-22T06:26:51;4.50;;;2.93;;
14797;SDS011;7490;63.708;20.368;2024-03-22T06:29:17;3.63;;;2.73;;
14797;SDS011;7490;63.708;20.368;2024-03-22T06:31:43;4.47;;;2.90;;
14797;SDS011;7490;63.708;20.368;2024-03-22T06:34:08;5.80;;;2.70;;
14797;SDS011;7490;63.708;20.368;2024-03-22T06:36:34;5.00;;;2.80;;
14797;SDS011;7490;63.708;20.368;2024-03-22T06:39:00;5.23;;;2.90;;
14797;SDS011;7490;63.708;20.368;2024-03-22T06:41:25;3.70;;;2.70;;
14797;SDS011;7490;63.708;20.368;2024-03-22T06:43:52;5.17;;;2.87;;
14797;SDS011;7490;63.708;20.368;2024-03-22T06:46:18;7.50;;;3.10;;
14797;SDS011;7490;63.708;20.368;2024-03-22T06:48:44;4.57;;;3.00;;
14797;SDS011;7490;63.708;20.368;2024-03-22T06:51:10;5.87;;;3.23;;
14797;SDS011;7490;63.708;20.368;2024-03-22T06:53:36;5.87;;;3.27;;
14797;SDS011;7490;63.708;20.368;2024-03-22T06:56:01;4.93;;;2.90;;
14797;SDS011;7490;63.708;20.368;2024-03-22T06:58:27;5.23;;;3.20;;
14797;SDS011;7490;63.708;20.368;2024-03-22T07:00:53;6.13;;;3.40;;
14797;SDS011;7490;63.708;20.368;2024-03-22T07:03:19;6.13;;;3.30;;
14797;SDS011;7490;63.708;20.368;2024-03-22T07:05:46;6.97;;;3.50;;
14797;SDS011;7490;63.708;20.368;2024-03-22T07:08:12;4.57;;;2.83;;
14797;SDS011;7490;63.708;20.368;2024-03-22T07:10:38;6.30;;;2.80;;
14797;SDS011;7490;63.708;20.368;2024-03-22T07:13:04;4.23;;;2.70;;
14797;SDS011;7490;63.708;20.368;2024-03-22T07:15:31;3.83;;;2.53;;
14797;SDS011;7490;63.708;20.368;2024-03-22T07:17:57;3.40;;;2.77;;
14797;SDS011;7490;63.708;20.368;2024-03-22T07:20:23;5.40;;;2.37;;
14797;SDS011;7490;63.708;20.368;2024-03-22T07:22:50;3.63;;;2.03;;
14797;SDS011;7490;63.708;20.368;2024-03-22T07:25:16;3.40;;;2.37;;
14797;SDS011;7490;63.708;20.368;2024-03-22T07:27:41;2.37;;;2.13;;
14797;SDS011;7490;63.708;20.368;2024-03-22T07:30:07;2.17;;;1.97;;
14797;SDS011;7490;63.708;20.368;2024-03-22T07:32:34;2.03;;;1.90;;
14797;SDS011;7490;63.708;20.368;2024-03-22T07:35:02;3.00;;;2.00;;
14797;SDS011;7490;63.708;20.368;2024-03-22T07:37:28;2.00;;;1.80;;
14797;SDS011;7490;63.708;20.368;2024-03-22T07:39:54;3.40;;;1.80;;
14797;SDS011;7490;63.708;20.368;2024-03-22T07:42:19;2.00;;;1.77;;
14797;SDS011;7490;63.708;20.368;2024-03-22T07:44:46;2.70;;;1.80;;
14797;SDS011;7490;63.708;20.368;2024-03-22T07:47:12;3.40;;;1.80;;
14797;SDS011;7490;63.708;20.368;2024-03-22T07:49:37;2.60;;;1.60;;
14797;SDS011;7490;63.708;20.368;2024-03-22T07:52:03;3.10;;;1.13;;
14797;SDS011;7490;63.708;20.368;2024-03-22T07:54:30;1.77;;;1.30;;
14797;SDS011;7490;63.708;20.368;2024-03-22T07:56:55;2.27;;;1.20;;
14797;SDS011;7490;63.708;20.368;2024-03-22T07:59:21;1.20;;;1.10;;
14797;SDS011;7490;63.708;20.368;2024-03-22T08:01:46;1.07;;;1.00;;
14797;SDS011;7490;63.708;20.368;2024-03-22T08:04:13;1.20;;;1.10;;
14797;SDS011;7490;63.708;20.368;2024-03-22T08:06:39;1.10;;;1.10;;
14797;SDS011;7490;63.708;20.368;2024-03-22T08:09:05;2.67;;;1.10;;
14797;SDS011;7490;63.708;20.368;2024-03-22T08:11:32;1.33;;;1.27;;
14797;SDS011;7490;63.708;20.368;2024-03-22T08:13:58;1.30;;;1.20;;
14797;SDS011;7490;63.708;20.368;2024-03-22T08:16:28;1.10;;;1.10;;
14797;SDS011;7490;63.708;20.368;2024-03-22T08:18:54;1.57;;;1.20;;
14797;SDS011;7490;63.708;20.368;2024-03-22T08:21:20;3.43;;;1.50;;
14797;SDS011;7490;63.708;20.368;2024-03-22T08:23:45;1.63;;;1.30;;
14797;SDS011;7490;63.708;20.368;2024-03-22T08:26:11;1.70;;;1.30;;
14797;SDS011;7490;63.708;20.368;2024-03-22T08:28:37;1.40;;;1.30;;
14797;SDS011;7490;63.708;20.368;2024-03-22T08:31:03;1.53;;;1.30;;
14797;SDS011;7490;63.708;20.368;2024-03-22T08:33:30;1.63;;;1.30;;
14797;SDS011;7490;63.708;20.368;2024-03-22T08:35:55;1.27;;;1.17;;
14797;SDS011;7490;63.708;20.368;2024-03-22T08:38:21;1.47;;;1.30;;
14797;SDS011;7490;63.708;20.368;2024-03-22T08:40:47;2.40;;;1.60;;
14797;SDS011;7490;63.708;20.368;2024-03-22T08:43:13;2.80;;;1.30;;
14797;SDS011;7490;63.708;20.368;2024-03-22T08:45:40;2.67;;;1.50;;
14797;SDS011;7490;63.708;20.368;2024-03-22T08:48:05;3.17;;;1.70;;
14797;SDS011;7490;63.708;20.368;2024-03-22T08:50:32;1.73;;;1.20;;
14797;SDS011;7490;63.708;20.368;2024-03-22T08:52:57;2.67;;;1.70;;
14797;SDS011;7490;63.708;20.368;2024-03-22T08:55:23;1.50;;;1.40;;
14797;SDS011;7490;63.708;20.368;2024-03-22T08:57:49;1.50;;;1.40;;
14797;SDS011;7490;63.708;20.368;2024-03-22T09:00:14;2.43;;;1.37;;
14797;SDS011;7490;63.708;20.368;2024-03-22T09:02:40;1.30;;;1.20;;
14797;SDS011;7490;63.708;20.368;2024-03-22T09:05:06;2.30;;;1.50;;
14797;SDS011;7490;63.708;20.368;2024-03-22T09:07:33;1.93;;;1.57;;
14797;SDS011;7490;63.708;20.368;2024-03-22T09:09:59;3.63;;;1.60;;
14797;SDS011;7490;63.708;20.368;2024-03-22T09:12:24;2.43;;;1.37;;
14797;SDS011;7490;63.708;20.368;2024-03-22T09:14:50;2.87;;;1.43;;
14797;SDS011;7490;63.708;20.368;2024-03-22T09:17:16;1.67;;;1.57;;
14797;SDS011;7490;63.708;20.368;2024-03-22T09:19:41;1.60;;;1.50;;
14797;SDS011;7490;63.708;20.368;2024-03-22T09:22:07;4.00;;;1.30;;
14797;SDS011;7490;63.708;20.368;2024-03-22T09:24:33;1.10;;;1.00;;
14797;SDS011;7490;63.708;20.368;2024-03-22T09:26:58;1.50;;;1.40;;
14797;SDS011;7490;63.708;20.368;2024-03-22T09:29:24;2.73;;;1.30;;
14797;SDS011;7490;63.708;20.368;2024-03-22T09:31:49;1.40;;;1.30;;
14797;SDS011;7490;63.708;20.368;2024-03-22T09:34:18;2.03;;;1.40;;
14797;SDS011;7490;63.708;20.368;2024-03-22T09:36:44;1.50;;;1.40;;
14797;SDS011;7490;63.708;20.368;2024-03-22T09:39:10;1.77;;;1.40;;
14797;SDS011;7490;63.708;20.368;2024-03-22T09:41:38;1.83;;;1.40;;
14797;SDS011;7490;63.708;20.368;2024-03-22T09:44:07;2.30;;;1.50;;
14797;SDS011;7490;63.708;20.368;2024-03-22T09:46:39;2.10;;;1.83;;
14797;SDS011;7490;63.708;20.368;2024-03-22T09:49:07;1.57;;;1.47;;
14797;SDS011;7490;63.708;20.368;2024-03-22T09:51:37;1.80;;;1.47;;
14797;SDS011;7490;63.708;20.368;2024-03-22T09:54:03;1.80;;;1.60;;
14797;SDS011;7490;63.708;20.368;2024-03-22T09:56:30;2.57;;;1.80;;
14797;SDS011;7490;63.708;20.368;2024-03-22T09:58:59;1.60;;;1.50;;
14797;SDS011;7490;63.708;20.368;2024-03-22T10:01:25;2.00;;;1.80;;
14797;SDS011;7490;63.708;20.368;2024-03-22T10:03:51;2.10;;;2.00;;
14797;SDS011;7490;63.708;20.368;2024-03-22T10:06:17;1.90;;;1.80;;
14797;SDS011;7490;63.708;20.368;2024-03-22T10:08:44;2.10;;;2.00;;
14797;SDS011;7490;63.708;20.368;2024-03-22T10:11:09;2.00;;;1.80;;
14797;SDS011;7490;63.708;20.368;2024-03-22T10:13:36;1.90;;;1.70;;
14797;SDS011;7490;63.708;20.368;2024-03-22T10:16:01;3.77;;;1.87;;
14797;SDS011;7490;63.708;20.368;2024-03-22T10:18:27;2.37;;;1.90;;
14797;SDS011;7490;63.708;20.368;2024-03-22T10:21:03;1.77;;;1.67;;
14797;SDS011;7490;63.708;20.368;2024-03-22T10:23:30;2.77;;;1.60;;
14797;SDS011;7490;63.708;20.368;2024-03-22T10:25:56;2.17;;;1.70;;
14797;SDS011;7490;63.708;20.368;2024-03-22T10:28:23;2.60;;;1.90;;
14797;SDS011;7490;63.708;20.368;2024-03-22T10:30:50;2.10;;;1.63;;
14797;SDS011;7490;63.708;20.368;2024-03-22T10:33:18;2.57;;;2.30;;
14797;SDS011;7490;63.708;20.368;2024-03-22T10:35:54;2.00;;;1.80;;
14797;SDS011;7490;63.708;20.368;2024-03-22T10:38:20;1.87;;;1.67;;
14797;SDS011;7490;63.708;20.368;2024-03-22T10:40:46;2.17;;;2.00;;
14797;SDS011;7490;63.708;20.368;2024-03-22T10:43:16;2.90;;;1.70;;
14797;SDS011;7490;63.708;20.368;2024-03-22T10:45:42;2.67;;;1.70;;
14797;SDS011;7490;63.708;20.368;2024-03-22T10:48:11;3.50;;;1.83;;
14797;SDS011;7490;63.708;20.368;2024-03-22T10:50:40;1.90;;;1.80;;
14797;SDS011;7490;63.708;20.368;2024-03-22T10:53:16;2.00;;;1.87;;
14797;SDS011;7490;63.708;20.368;2024-03-22T10:55:47;2.27;;;1.80;;
14797;SDS011;7490;63.708;20.368;2024-03-22T10:58:18;2.83;;;1.80;;
14797;SDS011;7490;63.708;20.368;2024-03-22T11:00:46;3.40;;;1.80;;
14797;SDS011;7490;63.708;20.368;2024-03-22T11:03:12;3.10;;;1.80;;
14797;SDS011;7490;63.708;20.368;2024-03-22T11:05:45;2.67;;;1.63;;
14797;SDS011;7490;63.708;20.368;2024-03-22T11:08:24;3.20;;;2.00;;
14797;SDS011;7490;63.708;20.368;2024-03-22T11:10:51;2.63;;;1.63;;
14797;SDS011;7490;63.708;20.368;2024-03-22T11:13:17;3.03;;;1.83;;
14797;SDS011;7490;63.708;20.368;2024-03-22T11:15:43;2.80;;;1.70;;
14797;SDS011;7490;63.708;20.368;2024-03-22T11:18:09;2.50;;;1.63;;
14797;SDS011;7490;63.708;20.368;2024-03-22T11:20:37;2.57;;;1.80;;
14797;SDS011;7490;63.708;20.368;2024-03-22T11:23:04;2.70;;;1.70;;
14797;SDS011;7490;63.708;20.368;2024-03-22T11:25:33;5.10;;;1.80;;
14797;SDS011;7490;63.708;20.368;2024-03-22T11:28:00;3.00;;;2.00;;
14797;SDS011;7490;63.708;20.368;2024-03-22T11:30:30;2.67;;;1.80;;
14797;SDS011;7490;63.708;20.368;2024-03-22T11:32:57;2.57;;;1.90;;
14797;SDS011;7490;63.708;20.368;2024-03-22T11:35:26;5.30;;;1.90;;
14797;SDS011;7490;63.708;20.368;2024-03-22T11:37:52;3.13;;;1.70;;
14797;SDS011;7490;63.708;20.368;2024-03-22T11:40:17;2.90;;;2.10;;
14797;SDS011;7490;63.708;20.368;2024-03-22T11:42:46;3.63;;;1.80;;
14797;SDS011;7490;63.708;20.368;2024-03-22T11:45:16;3.23;;;1.67;;
14797;SDS011;7490;63.708;20.368;2024-03-22T11:47:46;2.83;;;1.80;;
14797;SDS011;7490;63.708;20.368;2024-03-22T11:50:12;6.57;;;2.33;;
14797;SDS011;7490;63.708;20.368;2024-03-22T11:52:42;6.07;;;2.63;;
14797;SDS011;7490;63.708;20.368;2024-03-22T11:55:09;1.97;;;1.60;;
14797;SDS011;7490;63.708;20.368;2024-03-22T11:57:35;6.97;;;2.10;;
14797;SDS011;7490;63.708;20.368;2024-03-22T12:00:02;4.50;;;2.10;;
14797;SDS011;7490;63.708;20.368;2024-03-22T12:02:31;5.13;;;1.83;;
14797;SDS011;7490;63.708;20.368;2024-03-22T12:04:57;4.07;;;1.97;;
14797;SDS011;7490;63.708;20.368;2024-03-22T12:07:23;3.83;;;2.30;;
14797;SDS011;7490;63.708;20.368;2024-03-22T12:09:49;4.77;;;2.13;;
14797;SDS011;7490;63.708;20.368;2024-03-22T12:12:15;4.37;;;2.10;;
14797;SDS011;7490;63.708;20.368;2024-03-22T12:14:40;7.70;;;2.33;;
14797;SDS011;7490;63.708;20.368;2024-03-22T12:17:06;7.10;;;2.00;;
14797;SDS011;7490;63.708;20.368;2024-03-22T12:19:32;5.00;;;1.80;;
14797;SDS011;7490;63.708;20.368;2024-03-22T12:21:58;4.60;;;1.70;;
14797;SDS011;7490;63.708;20.368;2024-03-22T12:24:25;3.37;;;1.80;;
14797;SDS011;7490;63.708;20.368;2024-03-22T12:26:52;4.23;;;1.80;;
14797;SDS011;7490;63.708;20.368;2024-03-22T12:29:18;2.00;;;1.77;;
14797;SDS011;7490;63.708;20.368;2024-03-22T12:31:44;3.67;;;1.80;;
14797;SDS011;7490;63.708;20.368;2024-03-22T12:34:10;2.90;;;1.60;;
14797;SDS011;7490;63.708;20.368;2024-03-22T12:36:36;1.80;;;1.40;;
14797;SDS011;7490;63.708;20.368;2024-03-22T12:39:02;3.17;;;1.33;;
14797;SDS011;7490;63.708;20.368;2024-03-22T12:41:28;2.50;;;1.40;;
14797;SDS011;7490;63.708;20.368;2024-03-22T12:43:55;1.70;;;1.40;;
14797;SDS011;7490;63.708;20.368;2024-03-22T12:46:21;1.53;;;1.43;;
14797;SDS011;7490;63.708;20.368;2024-03-22T12:48:46;1.97;;;1.67;;
14797;SDS011;7490;63.708;20.368;2024-03-22T12:51:12;2.70;;;1.70;;
14797;SDS011;7490;63.708;20.368;2024-03-22T12:53:38;2.20;;;1.60;;
14797;SDS011;7490;63.708;20.368;2024-03-22T12:56:04;3.00;;;1.80;;
14797;SDS011;7490;63.708;20.368;2024-03-22T12:58:30;2.30;;;1.70;;
14797;SDS011;7490;63.708;20.368;2024-03-22T13:00:56;2.40;;;1.50;;
14797;SDS011;7490;63.708;20.368;2024-03-22T13:03:22;2.20;;;1.60;;
14797;SDS011;7490;63.708;20.368;2024-03-22T13:05:48;2.40;;;1.60;;
14797;SDS011;7490;63.708;20.368;2024-03-22T13:08:13;2.50;;;1.70;;
14797;SDS011;7490;63.708;20.368;2024-03-22T13:10:39;4.33;;;1.90;;
14797;SDS011;7490;63.708;20.368;2024-03-22T13:13:08;1.97;;;1.77;;
14797;SDS011;7490;63.708;20.368;2024-03-22T13:15:34;2.00;;;1.80;;
14797;SDS011;7490;63.708;20.368;2024-03-22T13:18:02;4.67;;;1.83;;
14797;SDS011;7490;63.708;20.368;2024-03-22T13:20:28;3.03;;;1.83;;
14797;SDS011;7490;63.708;20.368;2024-03-22T13:22:54;2.53;;;1.90;;
14797;SDS011;7490;63.708;20.368;2024-03-22T13:25:20;4.63;;;2.07;;
14797;SDS011;7490;63.708;20.368;2024-03-22T13:27:46;11.93;;;2.30;;
14797;SDS011;7490;63.708;20.368;2024-03-22T13:30:11;7.30;;;4.07;;
14797;SDS011;7490;63.708;20.368;2024-03-22T13:32:37;8.33;;;4.97;;
14797;SDS011;7490;63.708;20.368;2024-03-22T13:35:04;7.63;;;4.20;;
14797;SDS011;7490;63.708;20.368;2024-03-22T13:37:30;3.73;;;2.50;;
14797;SDS011;7490;63.708;20.368;2024-03-22T13:39:56;2.50;;;2.20;;
14797;SDS011;7490;63.708;20.368;2024-03-22T13:42:22;5.40;;;2.50;;
14797;SDS011;7490;63.708;20.368;2024-03-22T13:44:47;5.73;;;3.40;;
14797;SDS011;7490;63.708;20.368;2024-03-22T13:47:13;3.33;;;2.40;;
14797;SDS011;7490;63.708;20.368;2024-03-22T13:49:39;3.23;;;2.30;;
14797;SDS011;7490;63.708;20.368;2024-03-22T13:52:06;4.07;;;2.40;;
14797;SDS011;7490;63.708;20.368;2024-03-22T13:54:32;2.50;;;2.30;;
14797;SDS011;7490;63.708;20.368;2024-03-22T13:56:58;2.73;;;2.30;;
14797;SDS011;7490;63.708;20.368;2024-03-22T13:59:25;2.20;;;2.00;;
14797;SDS011;7490;63.708;20.368;2024-03-22T14:01:51;2.67;;;2.00;;
14797;SDS011;7490;63.708;20.368;2024-03-22T14:04:17;1.90;;;1.50;;
14797;SDS011;7490;63.708;20.368;2024-03-22T14:06:44;2.10;;;1.80;;
14797;SDS011;7490;63.708;20.368;2024-03-22T14:09:10;1.50;;;1.40;;
14797;SDS011;7490;63.708;20.368;2024-03-22T14:11:38;1.60;;;1.30;;
14797;SDS011;7490;63.708;20.368;2024-03-22T14:14:04;1.73;;;1.30;;
14797;SDS011;7490;63.708;20.368;2024-03-22T14:16:29;1.30;;;1.20;;
14797;SDS011;7490;63.708;20.368;2024-03-22T14:18:55;1.30;;;1.20;;
14797;SDS011;7490;63.708;20.368;2024-03-22T14:21:21;1.10;;;1.10;;
14797;SDS011;7490;63.708;20.368;2024-03-22T14:23:47;1.17;;;1.10;;
14797;SDS011;7490;63.708;20.368;2024-03-22T14:26:13;1.30;;;1.17;;
14797;SDS011;7490;63.708;20.368;2024-03-22T14:28:39;1.27;;;1.17;;
14797;SDS011;7490;63.708;20.368;2024-03-22T14:31:11;1.20;;;1.10;;
14797;SDS011;7490;63.708;20.368;2024-03-22T14:33:37;0.90;;;0.90;;
14797;SDS011;7490;63.708;20.368;2024-03-22T14:36:04;1.10;;;1.10;;
14797;SDS011;7490;63.708;20.368;2024-03-22T14:38:34;0.93;;;0.93;;
14797;SDS011;7490;63.708;20.368;2024-03-22T14:41:00;1.00;;;1.00;;
14797;SDS011;7490;63.708;20.368;2024-03-22T14:43:26;1.13;;;1.03;;
14797;SDS011;7490;63.708;20.368;2024-03-22T14:45:52;1.20;;;1.20;;